createdAt,value
2018-11-11T00:00:33.862Z,8.17
2018-11-11T00:03:37.352Z,9.20
2018-11-11T00:06:40.863Z,8.03
2018-11-11T00:09:44.754Z,6.67
2018-11-11T00:12:48.179Z,9.93
2018-11-11T00:15:51.650Z,8.47
2018-11-11T00:18:55.057Z,7.70
2018-11-11T00:21:59.466Z,6.93
2018-11-11T00:25:02.876Z,8.20
2018-11-11T00:28:06.331Z,11.50
2018-11-11T00:31:09.840Z,8.03
2018-11-11T00:34:13.660Z,7.63
2018-11-11T00:37:17.105Z,7.60
2018-11-11T00:40:20.521Z,7.53
2018-11-11T00:43:24.025Z,6.40
2018-11-11T00:46:27.547Z,7.73
2018-11-11T00:49:30.982Z,6.40
2018-11-11T00:52:34.497Z,6.97
2018-11-11T00:55:39.460Z,6.93
2018-11-11T00:58:42.926Z,6.23
2018-11-11T01:01:46.334Z,7.47
2018-11-11T01:04:49.727Z,6.93
2018-11-11T01:07:53.142Z,6.93
2018-11-11T01:10:56.624Z,8.30
2018-11-11T01:14:00.040Z,7.17
2018-11-11T01:17:03.437Z,6.27
2018-11-11T01:20:08.820Z,9.13
2018-11-11T01:23:12.177Z,7.60
2018-11-11T01:26:15.591Z,9.70
2018-11-11T01:29:18.990Z,9.43
2018-11-11T01:32:23.445Z,11.00
2018-11-11T01:35:26.807Z,11.70
2018-11-11T01:38:30.274Z,13.47
2018-11-11T01:41:33.651Z,13.67
2018-11-11T01:44:37.106Z,13.47
2018-11-11T01:47:40.588Z,14.67
2018-11-11T01:50:44.030Z,16.03
2018-11-11T01:53:47.412Z,14.23
2018-11-11T01:56:50.831Z,14.60
2018-11-11T01:59:54.212Z,15.07
2018-11-11T02:02:57.608Z,15.93
2018-11-11T02:06:01.029Z,14.70
2018-11-11T02:09:06.977Z,15.33
2018-11-11T02:12:10.375Z,15.87
2018-11-11T02:15:14.931Z,13.97
2018-11-11T02:18:18.300Z,14.67
2018-11-11T02:21:21.774Z,16.77
2018-11-11T02:24:25.258Z,15.10
2018-11-11T02:27:28.734Z,16.43
2018-11-11T02:30:32.170Z,13.57
2018-11-11T02:33:35.677Z,14.73
2018-11-11T02:36:39.226Z,14.17
2018-11-11T02:39:42.844Z,14.70
2018-11-11T02:42:46.560Z,14.33
2018-11-11T02:45:50.044Z,15.80
2018-11-11T02:48:53.570Z,14.17
2018-11-11T02:51:57.374Z,15.37
2018-11-11T02:55:00.887Z,14.43
2018-11-11T02:58:04.457Z,15.73
2018-11-11T03:01:08.003Z,14.90
2018-11-11T03:04:11.557Z,14.93
2018-11-11T03:07:14.978Z,15.17
2018-11-11T03:10:18.896Z,14.97
2018-11-11T03:13:22.393Z,15.07
2018-11-11T03:16:25.938Z,16.53
2018-11-11T03:19:29.474Z,16.83
2018-11-11T03:22:33.443Z,16.20
2018-11-11T03:25:36.949Z,17.47
2018-11-11T03:28:41.445Z,14.00
2018-11-11T03:31:45.071Z,16.23
2018-11-11T03:34:48.634Z,16.67
2018-11-11T03:37:52.152Z,15.20
2018-11-11T03:40:55.622Z,17.03
2018-11-11T03:43:59.190Z,16.70
2018-11-11T03:47:02.701Z,15.23
2018-11-11T03:50:07.170Z,15.43
2018-11-11T03:53:10.675Z,14.40
2018-11-11T03:56:14.152Z,16.77
2018-11-11T03:59:17.661Z,16.17
2018-11-11T04:02:21.178Z,15.60
2018-11-11T04:05:24.656Z,14.80
2018-11-11T04:08:28.222Z,15.67
2018-11-11T04:11:31.646Z,17.40
2018-11-11T04:14:35.212Z,14.73
2018-11-11T04:17:39.118Z,14.90
2018-11-11T04:20:42.582Z,15.03
2018-11-11T04:23:46.079Z,15.27
2018-11-11T04:26:50.504Z,14.97
2018-11-11T04:29:53.920Z,16.87
2018-11-11T04:32:57.415Z,16.33
2018-11-11T04:36:00.921Z,15.00
2018-11-11T04:39:06.213Z,15.70
2018-11-11T04:42:09.683Z,20.20
2018-11-11T04:45:14.461Z,15.77
2018-11-11T04:48:17.892Z,16.13
2018-11-11T04:51:21.355Z,14.97
2018-11-11T04:54:25.102Z,13.03
2018-11-11T04:57:28.536Z,15.70
2018-11-11T05:00:32.007Z,17.37
2018-11-11T05:03:35.548Z,17.17
2018-11-11T05:06:39.012Z,14.63
2018-11-11T05:09:42.532Z,14.83
2018-11-11T05:12:46.280Z,16.37
2018-11-11T05:15:49.730Z,17.50
2018-11-11T05:18:53.128Z,15.40
2018-11-11T05:21:56.750Z,15.57
2018-11-11T05:25:00.143Z,15.40
2018-11-11T05:28:03.657Z,15.63
2018-11-11T05:31:07.246Z,13.93
2018-11-11T05:34:10.969Z,13.40
2018-11-11T05:37:14.619Z,14.47
2018-11-11T05:40:18.102Z,16.17
2018-11-11T05:43:21.580Z,13.33
2018-11-11T05:46:25.970Z,15.43
2018-11-11T05:49:29.804Z,16.67
2018-11-11T05:52:33.345Z,15.27
2018-11-11T05:55:36.847Z,13.30
2018-11-11T05:58:40.367Z,13.63
2018-11-11T06:01:43.868Z,15.40
2018-11-11T06:04:47.353Z,17.27
2018-11-11T06:07:50.872Z,13.30
2018-11-11T06:10:54.363Z,12.20
2018-11-11T06:13:58.043Z,13.47
2018-11-11T06:17:01.545Z,15.83
2018-11-11T06:20:06.137Z,16.07
2018-11-11T06:23:09.571Z,17.73
2018-11-11T06:26:13.081Z,18.83
2018-11-11T06:29:16.739Z,16.07
2018-11-11T06:32:20.230Z,15.33
2018-11-11T06:35:23.805Z,20.03
2018-11-11T06:38:27.318Z,16.73
2018-11-11T06:41:30.777Z,15.67
2018-11-11T06:44:34.196Z,14.97
2018-11-11T06:47:37.725Z,16.23
2018-11-11T06:50:41.168Z,14.97
2018-11-11T06:53:44.619Z,16.60
2018-11-11T06:56:48.048Z,17.27
2018-11-11T06:59:52.030Z,14.10
2018-11-11T07:03:06.806Z,15.53
2018-11-11T07:06:10.269Z,12.77
2018-11-11T07:09:13.669Z,13.17
2018-11-11T07:12:17.040Z,12.73
2018-11-11T07:15:20.468Z,11.07
2018-11-11T07:18:23.877Z,9.57
2018-11-11T07:21:27.267Z,10.33
2018-11-11T07:24:30.668Z,10.47
2018-11-11T07:27:34.036Z,8.60
2018-11-11T07:30:37.447Z,9.83
2018-11-11T07:33:40.966Z,8.27
2018-11-11T07:36:44.362Z,7.13
2018-11-11T07:39:47.776Z,8.33
2018-11-11T07:42:51.213Z,9.27
2018-11-11T07:45:54.708Z,9.03
2018-11-11T07:48:58.156Z,10.30
2018-11-11T07:52:01.592Z,6.40
2018-11-11T07:55:05.615Z,7.40
2018-11-11T07:58:09.024Z,8.43
2018-11-11T08:01:12.497Z,6.23
2018-11-11T08:04:15.968Z,5.50
2018-11-11T08:07:19.702Z,6.17
2018-11-11T08:10:34.392Z,4.87
2018-11-11T08:13:37.833Z,3.33
2018-11-11T08:16:42.818Z,8.20
2018-11-11T08:19:46.274Z,3.90
2018-11-11T08:22:49.804Z,4.33
2018-11-11T08:25:53.339Z,2.90
2018-11-11T08:28:56.781Z,3.90
2018-11-11T08:32:00.351Z,4.47
2018-11-11T08:35:03.856Z,6.10
2018-11-11T08:38:07.283Z,6.27
2018-11-11T08:41:10.930Z,4.33
2018-11-11T08:44:15.482Z,3.23
2018-11-11T08:47:18.845Z,5.03
2018-11-11T08:50:22.343Z,1.93
2018-11-11T08:53:25.824Z,2.17
2018-11-11T08:56:29.317Z,1.90
2018-11-11T08:59:32.986Z,1.80
2018-11-11T09:02:36.466Z,3.53
2018-11-11T09:05:39.959Z,2.47
2018-11-11T09:08:43.423Z,2.00
2018-11-11T09:11:46.946Z,3.07
2018-11-11T09:14:50.518Z,2.80
2018-11-11T09:17:53.929Z,2.00
2018-11-11T09:20:57.672Z,1.63
2018-11-11T09:24:01.210Z,3.30
2018-11-11T09:27:04.835Z,1.70
2018-11-11T09:30:10.537Z,2.10
2018-11-11T09:33:14.078Z,1.67
2018-11-11T09:36:17.516Z,4.10
2018-11-11T09:39:21.081Z,1.80
2018-11-11T09:42:24.548Z,2.33
2018-11-11T09:45:28.007Z,2.17
2018-11-11T09:48:31.484Z,2.73
2018-11-11T09:51:34.973Z,1.73
2018-11-11T09:54:38.450Z,1.67
2018-11-11T09:57:42.156Z,1.63
2018-11-11T10:00:45.634Z,1.57
2018-11-11T10:03:58.562Z,1.77
2018-11-11T10:07:07.388Z,1.60
2018-11-11T10:10:16.428Z,1.60
2018-11-11T10:13:25.631Z,1.27
2018-11-11T10:17:07.607Z,2.10
2018-11-11T10:20:15.864Z,1.63
2018-11-11T10:23:23.361Z,1.67
2018-11-11T10:26:32.788Z,1.00
2018-11-11T10:30:42.438Z,1.50
2018-11-11T10:33:49.412Z,3.40
2018-11-11T10:36:59.977Z,1.35
2018-11-11T10:40:08.503Z,0.83
2018-11-11T10:44:15.339Z,1.00
2018-11-11T10:47:53.119Z,3.13
2018-11-11T10:50:58.862Z,2.60
2018-11-11T10:54:02.654Z,1.30
2018-11-11T10:57:06.475Z,1.20
2018-11-11T11:00:14.240Z,0.87
2018-11-11T11:03:22.989Z,2.37
2018-11-11T11:06:31.851Z,2.53
2018-11-11T11:09:35.589Z,2.60
2018-11-11T11:12:38.934Z,1.87
2018-11-11T11:15:42.531Z,1.63
2018-11-11T11:18:46.456Z,2.10
2018-11-11T11:21:51.146Z,1.73
2018-11-11T11:24:55.254Z,2.73
2018-11-11T11:27:58.744Z,1.83
2018-11-11T11:31:02.197Z,1.73
2018-11-11T11:34:06.078Z,1.97
2018-11-11T11:37:09.554Z,1.70
2018-11-11T11:40:12.941Z,1.93
2018-11-11T11:43:16.321Z,3.53
2018-11-11T11:46:19.747Z,2.07
2018-11-11T11:49:23.236Z,3.27
2018-11-11T11:52:27.111Z,2.33
2018-11-11T11:55:30.449Z,3.63
2018-11-11T11:58:33.871Z,2.30
2018-11-11T12:01:37.323Z,2.40
2018-11-11T12:04:40.943Z,4.40
2018-11-11T12:07:44.427Z,3.60
2018-11-11T12:10:47.926Z,3.27
2018-11-11T12:13:51.375Z,3.27
2018-11-11T12:16:54.796Z,3.87
2018-11-11T12:19:58.249Z,3.23
2018-11-11T12:23:01.704Z,4.00
2018-11-11T12:26:05.355Z,3.90
2018-11-11T12:29:08.809Z,4.90
2018-11-11T12:32:12.186Z,4.27
2018-11-11T12:35:15.706Z,2.23
2018-11-11T12:38:19.112Z,5.67
2018-11-11T12:41:22.458Z,14.87
2018-11-11T12:44:25.883Z,6.13
2018-11-11T12:47:30.331Z,3.13
2018-11-11T12:50:33.767Z,5.03
2018-11-11T12:53:37.167Z,3.77
2018-11-11T12:56:40.527Z,4.83
2018-11-11T12:59:43.902Z,2.80
2018-11-11T13:02:47.505Z,3.77
2018-11-11T13:05:51.073Z,2.70
2018-11-11T13:08:54.624Z,4.30
2018-11-11T13:11:58.234Z,4.57
2018-11-11T13:15:01.678Z,5.50
2018-11-11T13:18:05.661Z,3.27
2018-11-11T13:21:09.188Z,3.13
2018-11-11T13:24:12.713Z,2.93
2018-11-11T13:27:16.716Z,4.03
2018-11-11T13:30:20.151Z,2.13
2018-11-11T13:33:23.690Z,3.73
2018-11-11T13:36:27.329Z,3.73
2018-11-11T13:39:30.936Z,2.63
2018-11-11T13:42:36.453Z,3.10
2018-11-11T13:45:39.934Z,1.90
2018-11-11T13:48:44.519Z,3.60
2018-11-11T13:51:49.012Z,3.70
2018-11-11T13:54:52.563Z,2.83
2018-11-11T13:57:56.157Z,2.40
2018-11-11T14:00:59.795Z,4.57
2018-11-11T14:04:03.507Z,4.17
2018-11-11T14:07:07.075Z,3.20
2018-11-11T14:10:11.902Z,2.87
2018-11-11T14:13:15.734Z,2.70
2018-11-11T14:16:19.379Z,5.10
2018-11-11T14:19:23.039Z,2.27
2018-11-11T14:22:26.536Z,3.13
2018-11-11T14:25:30.753Z,3.23
2018-11-11T14:28:34.383Z,3.57
2018-11-11T14:31:38.919Z,2.73
2018-11-11T14:34:42.489Z,2.47
2018-11-11T14:37:52.319Z,3.27
2018-11-11T14:40:55.810Z,3.70
2018-11-11T14:43:59.575Z,1.47
2018-11-11T14:47:03.305Z,3.37
2018-11-11T14:50:10.958Z,2.57
2018-11-11T14:53:21.748Z,3.07
2018-11-11T14:56:25.331Z,2.17
2018-11-11T14:59:31.109Z,3.40
2018-11-11T15:02:34.971Z,3.33
2018-11-11T15:05:39.910Z,5.10
2018-11-11T15:08:43.464Z,4.17
2018-11-11T15:11:46.983Z,1.63
2018-11-11T15:14:50.485Z,2.43
2018-11-11T15:17:54.797Z,4.07
2018-11-11T15:20:58.472Z,5.67
2018-11-11T15:24:02.060Z,3.50
2018-11-11T15:27:05.940Z,3.77
2018-11-11T15:30:13.053Z,3.43
2018-11-11T15:33:16.623Z,4.33
2018-11-11T15:36:21.234Z,3.33
2018-11-11T15:39:25.674Z,2.83
2018-11-11T15:42:29.373Z,5.83
2018-11-11T15:45:33.953Z,6.17
2018-11-11T15:48:42.389Z,4.40
2018-11-11T15:51:46.261Z,3.00
2018-11-11T15:54:50.885Z,3.73
2018-11-11T15:57:57.729Z,4.93
2018-11-11T16:01:01.198Z,4.97
2018-11-11T16:04:05.092Z,6.10
2018-11-11T16:07:08.656Z,6.33
2018-11-11T16:10:14.381Z,7.73
2018-11-11T16:13:17.858Z,4.73
2018-11-11T16:16:21.493Z,6.87
2018-11-11T16:19:24.960Z,7.63
2018-11-11T16:22:28.535Z,6.93
2018-11-11T16:25:32.090Z,5.33
2018-11-11T16:28:35.613Z,5.90
2018-11-11T16:31:39.206Z,8.40
2018-11-11T16:34:42.734Z,6.67
2018-11-11T16:37:46.462Z,6.27
2018-11-11T16:40:50.409Z,9.63
2018-11-11T16:43:54.101Z,4.47
2018-11-11T16:46:57.651Z,6.73
2018-11-11T16:50:01.249Z,7.07
2018-11-11T16:53:06.392Z,9.67
2018-11-11T16:56:09.914Z,6.33
2018-11-11T16:59:13.358Z,7.90
2018-11-11T17:02:16.862Z,8.13
2018-11-11T17:05:21.824Z,7.20
2018-11-11T17:08:25.298Z,6.33
2018-11-11T17:11:28.800Z,6.90
2018-11-11T17:14:32.389Z,5.87
2018-11-11T17:17:35.977Z,6.03
2018-11-11T17:20:39.680Z,8.60
2018-11-11T17:23:43.146Z,9.17
2018-11-11T17:26:46.641Z,6.27
2018-11-11T17:29:50.439Z,6.67
2018-11-11T17:32:54.277Z,5.63
2018-11-11T17:35:58.253Z,4.70
2018-11-11T17:39:01.785Z,5.63
2018-11-11T17:42:05.282Z,7.43
2018-11-11T17:45:10.527Z,6.73
2018-11-11T17:48:14.060Z,9.20
2018-11-11T17:51:17.562Z,4.77
2018-11-11T17:54:21.247Z,4.93
2018-11-11T17:57:24.722Z,6.63
2018-11-11T18:00:29.365Z,5.53
2018-11-11T18:03:32.967Z,5.63
2018-11-11T18:06:36.431Z,6.57
2018-11-11T18:09:40.892Z,6.63
2018-11-11T18:12:44.469Z,5.47
2018-11-11T18:15:48.016Z,5.63
2018-11-11T18:18:51.811Z,5.20
2018-11-11T18:21:55.641Z,3.77
2018-11-11T18:24:59.263Z,6.27
2018-11-11T18:28:02.988Z,6.87
2018-11-11T18:31:06.381Z,5.63
2018-11-11T18:34:09.903Z,7.37
2018-11-11T18:37:13.408Z,4.77
2018-11-11T18:40:18.667Z,6.00
2018-11-11T18:43:22.057Z,3.77
2018-11-11T18:46:25.894Z,4.10
2018-11-11T18:49:29.601Z,4.40
2018-11-11T18:52:33.101Z,4.07
2018-11-11T18:55:36.604Z,4.97
2018-11-11T18:58:40.013Z,3.97
2018-11-11T19:01:43.824Z,6.23
2018-11-11T19:04:47.352Z,5.00
2018-11-11T19:07:51.029Z,6.37
2018-11-11T19:10:54.772Z,6.70
2018-11-11T19:13:59.017Z,3.73
2018-11-11T19:17:02.488Z,4.30
2018-11-11T19:20:08.043Z,3.47
2018-11-11T19:23:11.720Z,2.80
2018-11-11T19:26:18.638Z,2.47
2018-11-11T19:29:31.470Z,2.40
2018-11-11T19:32:35.048Z,4.10
2018-11-11T19:35:38.807Z,2.37
2018-11-11T19:38:42.242Z,4.20
2018-11-11T19:41:45.837Z,2.73
2018-11-11T19:44:49.517Z,2.40
2018-11-11T19:47:53.969Z,2.03
2018-11-11T19:50:57.445Z,1.90
2018-11-11T19:54:01.098Z,2.67
2018-11-11T19:57:04.617Z,7.60
2018-11-11T20:00:11.879Z,3.77
2018-11-11T20:03:15.366Z,2.20
2018-11-11T20:06:18.879Z,2.63
2018-11-11T20:09:22.256Z,2.90
2018-11-11T20:12:25.799Z,3.77
2018-11-11T20:15:30.526Z,2.77
2018-11-11T20:18:34.011Z,3.23
2018-11-11T20:21:37.391Z,2.67
2018-11-11T20:24:40.801Z,3.93
2018-11-11T20:27:44.531Z,2.13
2018-11-11T20:30:48.000Z,3.90
2018-11-11T20:33:51.481Z,2.30
2018-11-11T20:36:54.924Z,3.60
2018-11-11T20:39:58.292Z,2.50
2018-11-11T20:43:01.759Z,2.53
2018-11-11T20:46:05.095Z,2.43
2018-11-11T20:49:08.644Z,4.07
2018-11-11T20:52:12.152Z,4.27
2018-11-11T20:55:16.342Z,3.30
2018-11-11T20:58:19.744Z,3.07
2018-11-11T21:01:23.130Z,3.07
2018-11-11T21:04:26.684Z,2.67
2018-11-11T21:07:30.403Z,1.97
2018-11-11T21:10:33.763Z,2.10
2018-11-11T21:13:37.321Z,3.87
2018-11-11T21:16:40.844Z,2.57
2018-11-11T21:19:44.361Z,3.43
2018-11-11T21:22:47.860Z,2.93
2018-11-11T21:25:51.393Z,4.03
2018-11-11T21:28:54.856Z,3.50
2018-11-11T21:31:58.338Z,2.27
2018-11-11T21:35:02.887Z,3.50
2018-11-11T21:38:06.391Z,2.00
2018-11-11T21:41:10.035Z,2.03
2018-11-11T21:44:13.669Z,2.70
2018-11-11T21:47:17.350Z,3.70
2018-11-11T21:50:22.975Z,2.63
2018-11-11T21:53:33.319Z,3.10
2018-11-11T21:56:36.931Z,4.17
2018-11-11T21:59:40.475Z,2.47
2018-11-11T22:02:44.025Z,3.70
2018-11-11T22:05:47.584Z,3.53
2018-11-11T22:08:51.070Z,5.60
2018-11-11T22:11:55.570Z,3.07
2018-11-11T22:14:59.060Z,2.77
2018-11-11T22:18:02.578Z,2.80
2018-11-11T22:21:06.067Z,3.90
2018-11-11T22:24:09.838Z,4.70
2018-11-11T22:27:13.442Z,3.93
2018-11-11T22:30:16.898Z,2.53
2018-11-11T22:33:20.553Z,1.80
2018-11-11T22:36:24.606Z,3.93
2018-11-11T22:39:28.125Z,2.67
2018-11-11T22:42:31.722Z,3.57
2018-11-11T22:45:35.183Z,2.00
2018-11-11T22:48:38.749Z,3.57
2018-11-11T22:51:42.381Z,3.00
2018-11-11T22:54:45.825Z,4.43
2018-11-11T22:57:49.533Z,3.03
2018-11-11T23:00:58.501Z,2.63
2018-11-11T23:04:03.156Z,5.57
2018-11-11T23:07:06.598Z,2.37
2018-11-11T23:10:10.785Z,3.53
2018-11-11T23:13:19.338Z,2.87
2018-11-11T23:16:23.768Z,2.20
2018-11-11T23:19:28.453Z,3.10
2018-11-11T23:22:31.894Z,2.43
2018-11-11T23:25:35.461Z,4.20
2018-11-11T23:28:38.912Z,3.20
2018-11-11T23:31:42.737Z,2.80
2018-11-11T23:34:46.222Z,2.20
2018-11-11T23:37:51.742Z,2.20
2018-11-11T23:40:56.253Z,3.50
2018-11-11T23:43:59.716Z,1.90
2018-11-11T23:47:03.203Z,1.93
2018-11-11T23:50:10.512Z,2.70
2018-11-11T23:53:14.277Z,3.83
2018-11-11T23:56:17.813Z,1.90
2018-11-11T23:59:21.344Z,2.83
